sensor_id;sensor_type;location;lat;lon;timestamp;P1;durP1;ratioP1;P2;durP2;ratioP2
36817;SDS011;22761;51.542;16.450;2023-06-04T00:00:34;2.90;;;1.30;;
36817;SDS011;22761;51.542;16.450;2023-06-04T00:03:22;3.60;;;1.60;;
36817;SDS011;22761;51.542;16.450;2023-06-04T00:05:51;3.40;;;1.70;;
36817;SDS011;22761;51.542;16.450;2023-06-04T00:08:19;3.00;;;1.60;;
36817;SDS011;22761;51.542;16.450;2023-06-04T00:10:47;3.30;;;1.30;;
36817;SDS011;22761;51.542;16.450;2023-06-04T00:13:15;3.50;;;1.70;;
36817;SDS011;22761;51.542;16.450;2023-06-04T00:15:44;5.80;;;2.20;;
36817;SDS011;22761;51.542;16.450;2023-06-04T00:18:12;4.90;;;1.70;;
36817;SDS011;22761;51.542;16.450;2023-06-04T00:20:41;3.90;;;1.80;;
36817;SDS011;22761;51.542;16.450;2023-06-04T00:23:10;4.00;;;1.60;;
36817;SDS011;22761;51.542;16.450;2023-06-04T00:25:38;2.80;;;1.40;;
36817;SDS011;22761;51.542;16.450;2023-06-04T00:28:06;4.30;;;1.90;;
36817;SDS011;22761;51.542;16.450;2023-06-04T00:30:35;4.40;;;1.70;;
36817;SDS011;22761;51.542;16.450;2023-06-04T00:33:03;2.60;;;1.70;;
36817;SDS011;22761;51.542;16.450;2023-06-04T00:35:32;3.60;;;2.00;;
36817;SDS011;22761;51.542;16.450;2023-06-04T00:38:00;3.40;;;1.70;;
36817;SDS011;22761;51.542;16.450;2023-06-04T00:40:28;4.00;;;1.80;;
36817;SDS011;22761;51.542;16.450;2023-06-04T00:42:57;3.00;;;1.60;;
36817;SDS011;22761;51.542;16.450;2023-06-04T00:45:25;3.30;;;1.70;;
36817;SDS011;22761;51.542;16.450;2023-06-04T00:47:54;3.20;;;1.80;;
36817;SDS011;22761;51.542;16.450;2023-06-04T00:50:23;5.00;;;1.80;;
36817;SDS011;22761;51.542;16.450;2023-06-04T00:52:52;3.00;;;1.90;;
36817;SDS011;22761;51.542;16.450;2023-06-04T00:55:20;6.20;;;1.90;;
36817;SDS011;22761;51.542;16.450;2023-06-04T00:57:49;4.20;;;1.90;;
36817;SDS011;22761;51.542;16.450;2023-06-04T01:00:17;3.30;;;1.50;;
36817;SDS011;22761;51.542;16.450;2023-06-04T01:02:46;3.40;;;1.80;;
36817;SDS011;22761;51.542;16.450;2023-06-04T01:08:27;5.20;;;2.00;;
36817;SDS011;22761;51.542;16.450;2023-06-04T01:10:55;5.00;;;2.30;;
36817;SDS011;22761;51.542;16.450;2023-06-04T01:13:24;3.00;;;2.00;;
36817;SDS011;22761;51.542;16.450;2023-06-04T01:15:52;6.50;;;2.50;;
36817;SDS011;22761;51.542;16.450;2023-06-04T01:18:21;7.40;;;2.20;;
36817;SDS011;22761;51.542;16.450;2023-06-04T01:26:30;7.90;;;2.20;;
36817;SDS011;22761;51.542;16.450;2023-06-04T01:28:59;4.50;;;2.30;;
36817;SDS011;22761;51.542;16.450;2023-06-04T01:31:29;4.80;;;2.30;;
36817;SDS011;22761;51.542;16.450;2023-06-04T01:34:01;4.60;;;2.20;;
36817;SDS011;22761;51.542;16.450;2023-06-04T01:36:30;3.70;;;2.00;;
36817;SDS011;22761;51.542;16.450;2023-06-04T01:38:58;3.90;;;2.30;;
36817;SDS011;22761;51.542;16.450;2023-06-04T01:41:28;5.10;;;1.90;;
36817;SDS011;22761;51.542;16.450;2023-06-04T01:43:56;5.80;;;2.20;;
36817;SDS011;22761;51.542;16.450;2023-06-04T01:46:25;7.00;;;2.60;;
36817;SDS011;22761;51.542;16.450;2023-06-04T01:48:53;4.50;;;2.70;;
36817;SDS011;22761;51.542;16.450;2023-06-04T01:51:21;4.80;;;2.70;;
36817;SDS011;22761;51.542;16.450;2023-06-04T01:53:50;5.70;;;2.30;;
36817;SDS011;22761;51.542;16.450;2023-06-04T01:56:18;4.70;;;2.50;;
36817;SDS011;22761;51.542;16.450;2023-06-04T01:58:49;3.30;;;2.30;;
36817;SDS011;22761;51.542;16.450;2023-06-04T02:01:18;4.80;;;2.50;;
36817;SDS011;22761;51.542;16.450;2023-06-04T02:03:47;4.40;;;2.60;;
36817;SDS011;22761;51.542;16.450;2023-06-04T02:06:16;5.40;;;2.70;;
36817;SDS011;22761;51.542;16.450;2023-06-04T02:08:44;4.40;;;2.10;;
36817;SDS011;22761;51.542;16.450;2023-06-04T02:11:13;5.00;;;2.60;;
36817;SDS011;22761;51.542;16.450;2023-06-04T02:13:41;5.60;;;2.70;;
36817;SDS011;22761;51.542;16.450;2023-06-04T02:16:10;5.70;;;2.80;;
36817;SDS011;22761;51.542;16.450;2023-06-04T02:18:38;7.90;;;3.00;;
36817;SDS011;22761;51.542;16.450;2023-06-04T02:21:07;3.70;;;2.20;;
36817;SDS011;22761;51.542;16.450;2023-06-04T02:23:36;4.70;;;2.60;;
36817;SDS011;22761;51.542;16.450;2023-06-04T02:26:04;5.20;;;2.90;;
36817;SDS011;22761;51.542;16.450;2023-06-04T02:28:34;5.70;;;3.00;;
36817;SDS011;22761;51.542;16.450;2023-06-04T02:31:02;5.70;;;2.70;;
36817;SDS011;22761;51.542;16.450;2023-06-04T02:33:31;5.00;;;2.80;;
36817;SDS011;22761;51.542;16.450;2023-06-04T02:35:59;5.00;;;2.50;;
36817;SDS011;22761;51.542;16.450;2023-06-04T02:38:28;6.20;;;2.70;;
36817;SDS011;22761;51.542;16.450;2023-06-04T02:40:56;5.10;;;2.40;;
36817;SDS011;22761;51.542;16.450;2023-06-04T02:43:25;6.20;;;2.40;;
36817;SDS011;22761;51.542;16.450;2023-06-04T02:45:53;6.00;;;2.70;;
36817;SDS011;22761;51.542;16.450;2023-06-04T02:48:21;7.20;;;2.50;;
36817;SDS011;22761;51.542;16.450;2023-06-04T02:50:50;7.50;;;2.70;;
36817;SDS011;22761;51.542;16.450;2023-06-04T02:53:18;4.90;;;2.50;;
36817;SDS011;22761;51.542;16.450;2023-06-04T02:55:46;5.70;;;2.60;;
36817;SDS011;22761;51.542;16.450;2023-06-04T02:58:14;5.40;;;2.70;;
36817;SDS011;22761;51.542;16.450;2023-06-04T03:00:44;6.40;;;2.70;;
36817;SDS011;22761;51.542;16.450;2023-06-04T03:03:13;6.00;;;2.50;;
36817;SDS011;22761;51.542;16.450;2023-06-04T03:05:41;4.20;;;2.40;;
36817;SDS011;22761;51.542;16.450;2023-06-04T03:08:10;5.30;;;2.50;;
36817;SDS011;22761;51.542;16.450;2023-06-04T03:10:39;4.90;;;2.80;;
36817;SDS011;22761;51.542;16.450;2023-06-04T03:13:07;5.30;;;2.60;;
36817;SDS011;22761;51.542;16.450;2023-06-04T03:15:36;4.00;;;2.40;;
36817;SDS011;22761;51.542;16.450;2023-06-04T03:18:07;4.50;;;2.80;;
36817;SDS011;22761;51.542;16.450;2023-06-04T03:20:36;4.50;;;2.50;;
36817;SDS011;22761;51.542;16.450;2023-06-04T03:23:06;5.30;;;2.70;;
36817;SDS011;22761;51.542;16.450;2023-06-04T03:25:35;8.10;;;2.60;;
36817;SDS011;22761;51.542;16.450;2023-06-04T03:28:03;7.10;;;2.50;;
36817;SDS011;22761;51.542;16.450;2023-06-04T03:30:32;6.50;;;2.40;;
36817;SDS011;22761;51.542;16.450;2023-06-04T03:33:03;6.40;;;2.80;;
36817;SDS011;22761;51.542;16.450;2023-06-04T03:35:33;5.30;;;2.30;;
36817;SDS011;22761;51.542;16.450;2023-06-04T03:38:01;4.20;;;2.40;;
36817;SDS011;22761;51.542;16.450;2023-06-04T03:40:30;5.30;;;2.50;;
36817;SDS011;22761;51.542;16.450;2023-06-04T03:42:59;6.30;;;2.40;;
36817;SDS011;22761;51.542;16.450;2023-06-04T03:45:31;5.40;;;2.50;;
36817;SDS011;22761;51.542;16.450;2023-06-04T03:47:59;4.80;;;2.30;;
36817;SDS011;22761;51.542;16.450;2023-06-04T03:50:29;5.50;;;2.40;;
36817;SDS011;22761;51.542;16.450;2023-06-04T03:52:58;3.40;;;2.60;;
36817;SDS011;22761;51.542;16.450;2023-06-04T03:55:26;5.60;;;2.50;;
36817;SDS011;22761;51.542;16.450;2023-06-04T03:57:55;4.00;;;2.30;;
36817;SDS011;22761;51.542;16.450;2023-06-04T04:00:24;7.10;;;2.70;;
36817;SDS011;22761;51.542;16.450;2023-06-04T04:02:52;4.40;;;2.70;;
36817;SDS011;22761;51.542;16.450;2023-06-04T04:05:24;5.80;;;2.80;;
36817;SDS011;22761;51.542;16.450;2023-06-04T04:07:53;5.20;;;2.60;;
36817;SDS011;22761;51.542;16.450;2023-06-04T04:10:25;4.50;;;2.50;;
36817;SDS011;22761;51.542;16.450;2023-06-04T04:12:53;4.50;;;2.60;;
36817;SDS011;22761;51.542;16.450;2023-06-04T04:15:23;7.00;;;3.30;;
36817;SDS011;22761;51.542;16.450;2023-06-04T04:17:52;6.10;;;2.80;;
36817;SDS011;22761;51.542;16.450;2023-06-04T04:20:21;5.00;;;3.30;;
36817;SDS011;22761;51.542;16.450;2023-06-04T04:22:54;6.50;;;3.60;;
36817;SDS011;22761;51.542;16.450;2023-06-04T04:25:22;6.60;;;3.50;;
36817;SDS011;22761;51.542;16.450;2023-06-04T04:27:51;8.10;;;4.00;;
36817;SDS011;22761;51.542;16.450;2023-06-04T04:30:19;7.20;;;3.90;;
36817;SDS011;22761;51.542;16.450;2023-06-04T04:32:50;7.80;;;3.50;;
36817;SDS011;22761;51.542;16.450;2023-06-04T04:35:24;5.80;;;3.10;;
36817;SDS011;22761;51.542;16.450;2023-06-04T04:37:55;6.40;;;3.00;;
36817;SDS011;22761;51.542;16.450;2023-06-04T04:40:24;5.50;;;3.30;;
36817;SDS011;22761;51.542;16.450;2023-06-04T04:42:54;6.20;;;3.40;;
36817;SDS011;22761;51.542;16.450;2023-06-04T04:45:23;6.30;;;3.30;;
36817;SDS011;22761;51.542;16.450;2023-06-04T04:47:53;5.70;;;3.30;;
36817;SDS011;22761;51.542;16.450;2023-06-04T04:50:22;7.30;;;3.80;;
36817;SDS011;22761;51.542;16.450;2023-06-04T04:52:51;6.80;;;3.50;;
36817;SDS011;22761;51.542;16.450;2023-06-04T04:55:19;7.90;;;3.30;;
36817;SDS011;22761;51.542;16.450;2023-06-04T04:57:49;9.90;;;3.30;;
36817;SDS011;22761;51.542;16.450;2023-06-04T05:00:17;7.60;;;3.40;;
36817;SDS011;22761;51.542;16.450;2023-06-04T05:02:48;5.20;;;3.00;;
36817;SDS011;22761;51.542;16.450;2023-06-04T05:05:17;6.20;;;3.10;;
36817;SDS011;22761;51.542;16.450;2023-06-04T05:07:46;5.40;;;3.00;;
36817;SDS011;22761;51.542;16.450;2023-06-04T05:10:15;6.90;;;3.40;;
36817;SDS011;22761;51.542;16.450;2023-06-04T05:12:56;5.60;;;3.20;;
36817;SDS011;22761;51.542;16.450;2023-06-04T05:15:31;6.50;;;3.40;;
36817;SDS011;22761;51.542;16.450;2023-06-04T05:18:00;5.70;;;2.80;;
36817;SDS011;22761;51.542;16.450;2023-06-04T05:20:34;5.00;;;2.80;;
36817;SDS011;22761;51.542;16.450;2023-06-04T05:23:07;6.90;;;3.40;;
36817;SDS011;22761;51.542;16.450;2023-06-04T05:25:37;5.30;;;3.40;;
36817;SDS011;22761;51.542;16.450;2023-06-04T05:28:06;5.60;;;3.10;;
36817;SDS011;22761;51.542;16.450;2023-06-04T05:30:35;9.20;;;3.30;;
36817;SDS011;22761;51.542;16.450;2023-06-04T05:33:04;7.00;;;3.30;;
36817;SDS011;22761;51.542;16.450;2023-06-04T05:35:32;8.10;;;3.20;;
36817;SDS011;22761;51.542;16.450;2023-06-04T05:38:02;6.10;;;2.90;;
36817;SDS011;22761;51.542;16.450;2023-06-04T05:40:31;5.10;;;2.90;;
36817;SDS011;22761;51.542;16.450;2023-06-04T05:42:59;6.70;;;3.60;;
36817;SDS011;22761;51.542;16.450;2023-06-04T05:45:27;6.40;;;3.20;;
36817;SDS011;22761;51.542;16.450;2023-06-04T05:47:56;5.80;;;3.20;;
36817;SDS011;22761;51.542;16.450;2023-06-04T05:50:26;4.90;;;3.00;;
36817;SDS011;22761;51.542;16.450;2023-06-04T05:52:55;5.40;;;2.80;;
36817;SDS011;22761;51.542;16.450;2023-06-04T05:55:25;5.00;;;2.40;;
36817;SDS011;22761;51.542;16.450;2023-06-04T05:57:53;3.40;;;2.30;;
36817;SDS011;22761;51.542;16.450;2023-06-04T06:00:22;3.40;;;2.10;;
36817;SDS011;22761;51.542;16.450;2023-06-04T06:02:51;6.10;;;2.60;;
36817;SDS011;22761;51.542;16.450;2023-06-04T06:05:34;5.00;;;2.30;;
36817;SDS011;22761;51.542;16.450;2023-06-04T06:08:04;4.50;;;2.40;;
36817;SDS011;22761;51.542;16.450;2023-06-04T06:10:33;5.90;;;2.70;;
36817;SDS011;22761;51.542;16.450;2023-06-04T06:13:02;3.50;;;2.10;;
36817;SDS011;22761;51.542;16.450;2023-06-04T06:15:31;3.80;;;2.10;;
36817;SDS011;22761;51.542;16.450;2023-06-04T06:17:59;5.20;;;2.20;;
36817;SDS011;22761;51.542;16.450;2023-06-04T06:20:28;3.20;;;2.00;;
36817;SDS011;22761;51.542;16.450;2023-06-04T06:22:57;5.60;;;2.10;;
36817;SDS011;22761;51.542;16.450;2023-06-04T06:25:28;5.10;;;2.20;;
36817;SDS011;22761;51.542;16.450;2023-06-04T06:28:04;6.30;;;2.40;;
36817;SDS011;22761;51.542;16.450;2023-06-04T06:30:33;4.80;;;2.40;;
36817;SDS011;22761;51.542;16.450;2023-06-04T06:33:02;5.00;;;1.90;;
36817;SDS011;22761;51.542;16.450;2023-06-04T06:35:30;3.70;;;2.10;;
36817;SDS011;22761;51.542;16.450;2023-06-04T06:37:58;4.90;;;2.20;;
36817;SDS011;22761;51.542;16.450;2023-06-04T06:40:27;5.00;;;2.10;;
36817;SDS011;22761;51.542;16.450;2023-06-04T06:42:55;5.90;;;1.90;;
36817;SDS011;22761;51.542;16.450;2023-06-04T06:45:23;3.80;;;2.20;;
36817;SDS011;22761;51.542;16.450;2023-06-04T06:47:52;5.50;;;2.30;;
36817;SDS011;22761;51.542;16.450;2023-06-04T06:50:20;4.60;;;2.00;;
36817;SDS011;22761;51.542;16.450;2023-06-04T06:52:49;5.30;;;2.50;;
36817;SDS011;22761;51.542;16.450;2023-06-04T06:55:17;2.50;;;2.00;;
36817;SDS011;22761;51.542;16.450;2023-06-04T06:57:45;3.70;;;1.80;;
36817;SDS011;22761;51.542;16.450;2023-06-04T07:00:14;3.70;;;1.90;;
36817;SDS011;22761;51.542;16.450;2023-06-04T07:02:43;5.20;;;2.00;;
36817;SDS011;22761;51.542;16.450;2023-06-04T07:05:13;5.30;;;2.30;;
36817;SDS011;22761;51.542;16.450;2023-06-04T07:07:43;5.60;;;2.20;;
36817;SDS011;22761;51.542;16.450;2023-06-04T07:10:11;3.40;;;1.80;;
36817;SDS011;22761;51.542;16.450;2023-06-04T07:12:41;5.50;;;2.00;;
36817;SDS011;22761;51.542;16.450;2023-06-04T07:15:10;3.80;;;2.00;;
36817;SDS011;22761;51.542;16.450;2023-06-04T07:17:38;2.50;;;1.50;;
36817;SDS011;22761;51.542;16.450;2023-06-04T07:20:08;3.60;;;1.60;;
36817;SDS011;22761;51.542;16.450;2023-06-04T07:22:37;3.50;;;1.70;;
36817;SDS011;22761;51.542;16.450;2023-06-04T07:25:06;3.70;;;1.00;;
36817;SDS011;22761;51.542;16.450;2023-06-04T07:27:34;2.30;;;1.10;;
36817;SDS011;22761;51.542;16.450;2023-06-04T07:30:03;4.00;;;1.60;;
36817;SDS011;22761;51.542;16.450;2023-06-04T07:32:32;2.40;;;1.40;;
36817;SDS011;22761;51.542;16.450;2023-06-04T07:35:01;6.10;;;1.70;;
36817;SDS011;22761;51.542;16.450;2023-06-04T07:37:30;3.40;;;1.10;;
36817;SDS011;22761;51.542;16.450;2023-06-04T07:39:59;2.70;;;1.40;;
36817;SDS011;22761;51.542;16.450;2023-06-04T07:42:28;5.90;;;1.40;;
36817;SDS011;22761;51.542;16.450;2023-06-04T07:44:56;4.20;;;1.50;;
36817;SDS011;22761;51.542;16.450;2023-06-04T07:47:24;5.30;;;1.30;;
36817;SDS011;22761;51.542;16.450;2023-06-04T07:49:53;2.90;;;1.50;;
36817;SDS011;22761;51.542;16.450;2023-06-04T07:52:30;5.30;;;1.40;;
36817;SDS011;22761;51.542;16.450;2023-06-04T07:54:59;3.90;;;1.40;;
36817;SDS011;22761;51.542;16.450;2023-06-04T07:57:27;3.90;;;1.10;;
36817;SDS011;22761;51.542;16.450;2023-06-04T07:59:56;2.10;;;1.20;;
36817;SDS011;22761;51.542;16.450;2023-06-04T08:02:25;2.50;;;1.20;;
36817;SDS011;22761;51.542;16.450;2023-06-04T08:04:54;4.40;;;1.30;;
36817;SDS011;22761;51.542;16.450;2023-06-04T08:07:22;2.00;;;0.80;;
36817;SDS011;22761;51.542;16.450;2023-06-04T08:09:51;4.00;;;1.00;;
36817;SDS011;22761;51.542;16.450;2023-06-04T08:12:19;1.40;;;0.90;;
36817;SDS011;22761;51.542;16.450;2023-06-04T08:14:48;3.30;;;1.20;;
36817;SDS011;22761;51.542;16.450;2023-06-04T08:17:18;1.50;;;1.00;;
36817;SDS011;22761;51.542;16.450;2023-06-04T08:19:47;3.50;;;1.10;;
36817;SDS011;22761;51.542;16.450;2023-06-04T08:22:15;3.00;;;1.30;;
36817;SDS011;22761;51.542;16.450;2023-06-04T08:24:43;4.70;;;1.30;;
36817;SDS011;22761;51.542;16.450;2023-06-04T08:27:12;3.10;;;1.20;;
36817;SDS011;22761;51.542;16.450;2023-06-04T08:29:40;3.80;;;1.10;;
36817;SDS011;22761;51.542;16.450;2023-06-04T08:32:08;6.00;;;1.80;;
36817;SDS011;22761;51.542;16.450;2023-06-04T08:34:37;4.30;;;1.40;;
36817;SDS011;22761;51.542;16.450;2023-06-04T08:37:05;4.20;;;1.70;;
36817;SDS011;22761;51.542;16.450;2023-06-04T08:39:34;4.50;;;1.40;;
36817;SDS011;22761;51.542;16.450;2023-06-04T08:42:38;3.90;;;1.70;;
36817;SDS011;22761;51.542;16.450;2023-06-04T08:44:58;3.50;;;1.00;;
36817;SDS011;22761;51.542;16.450;2023-06-04T08:47:26;2.10;;;1.10;;
36817;SDS011;22761;51.542;16.450;2023-06-04T08:50:00;3.30;;;0.90;;
36817;SDS011;22761;51.542;16.450;2023-06-04T08:52:30;2.90;;;1.40;;
36817;SDS011;22761;51.542;16.450;2023-06-04T08:54:59;2.30;;;1.20;;
36817;SDS011;22761;51.542;16.450;2023-06-04T08:57:27;5.40;;;1.20;;
36817;SDS011;22761;51.542;16.450;2023-06-04T08:59:58;2.70;;;1.30;;
36817;SDS011;22761;51.542;16.450;2023-06-04T09:02:27;2.50;;;0.90;;
36817;SDS011;22761;51.542;16.450;2023-06-04T09:04:56;1.10;;;0.90;;
36817;SDS011;22761;51.542;16.450;2023-06-04T09:07:25;5.70;;;1.20;;
36817;SDS011;22761;51.542;16.450;2023-06-04T09:09:53;5.70;;;1.40;;
36817;SDS011;22761;51.542;16.450;2023-06-04T09:12:42;2.60;;;1.00;;
36817;SDS011;22761;51.542;16.450;2023-06-04T09:15:14;1.50;;;0.90;;
36817;SDS011;22761;51.542;16.450;2023-06-04T09:17:43;2.30;;;1.10;;
36817;SDS011;22761;51.542;16.450;2023-06-04T09:20:18;2.20;;;1.10;;
36817;SDS011;22761;51.542;16.450;2023-06-04T09:22:47;5.90;;;1.00;;
36817;SDS011;22761;51.542;16.450;2023-06-04T09:25:19;4.50;;;1.00;;
36817;SDS011;22761;51.542;16.450;2023-06-04T09:27:53;3.30;;;1.00;;
36817;SDS011;22761;51.542;16.450;2023-06-04T09:30:25;2.60;;;1.00;;
36817;SDS011;22761;51.542;16.450;2023-06-04T09:32:53;1.20;;;0.70;;
36817;SDS011;22761;51.542;16.450;2023-06-04T09:35:22;2.90;;;0.80;;
36817;SDS011;22761;51.542;16.450;2023-06-04T09:37:51;1.50;;;0.80;;
36817;SDS011;22761;51.542;16.450;2023-06-04T09:40:21;2.30;;;0.80;;
36817;SDS011;22761;51.542;16.450;2023-06-04T09:42:50;2.50;;;1.00;;
36817;SDS011;22761;51.542;16.450;2023-06-04T09:45:34;2.20;;;0.80;;
36817;SDS011;22761;51.542;16.450;2023-06-04T09:48:04;2.70;;;1.00;;
36817;SDS011;22761;51.542;16.450;2023-06-04T09:50:37;2.30;;;1.00;;
36817;SDS011;22761;51.542;16.450;2023-06-04T09:53:14;1.90;;;0.70;;
36817;SDS011;22761;51.542;16.450;2023-06-04T09:55:43;4.50;;;0.90;;
36817;SDS011;22761;51.542;16.450;2023-06-04T09:58:12;0.90;;;0.70;;
36817;SDS011;22761;51.542;16.450;2023-06-04T10:00:41;2.70;;;0.80;;
36817;SDS011;22761;51.542;16.450;2023-06-04T10:03:09;2.40;;;1.00;;
36817;SDS011;22761;51.542;16.450;2023-06-04T10:05:44;2.00;;;0.80;;
36817;SDS011;22761;51.542;16.450;2023-06-04T10:08:12;2.70;;;1.00;;
36817;SDS011;22761;51.542;16.450;2023-06-04T10:10:41;1.10;;;0.70;;
36817;SDS011;22761;51.542;16.450;2023-06-04T10:13:12;3.40;;;0.90;;
36817;SDS011;22761;51.542;16.450;2023-06-04T10:15:43;3.40;;;0.80;;
36817;SDS011;22761;51.542;16.450;2023-06-04T10:18:13;2.10;;;0.90;;
36817;SDS011;22761;51.542;16.450;2023-06-04T10:20:43;2.70;;;1.10;;
36817;SDS011;22761;51.542;16.450;2023-06-04T10:23:12;1.80;;;1.00;;
36817;SDS011;22761;51.542;16.450;2023-06-04T10:25:40;2.10;;;0.70;;
36817;SDS011;22761;51.542;16.450;2023-06-04T10:28:09;1.50;;;0.80;;
36817;SDS011;22761;51.542;16.450;2023-06-04T10:30:38;1.30;;;0.90;;
36817;SDS011;22761;51.542;16.450;2023-06-04T10:33:06;2.00;;;0.90;;
36817;SDS011;22761;51.542;16.450;2023-06-04T10:35:35;3.90;;;0.70;;
36817;SDS011;22761;51.542;16.450;2023-06-04T10:38:05;1.50;;;0.60;;
36817;SDS011;22761;51.542;16.450;2023-06-04T10:40:35;2.50;;;0.90;;
36817;SDS011;22761;51.542;16.450;2023-06-04T10:43:04;4.20;;;1.00;;
36817;SDS011;22761;51.542;16.450;2023-06-04T10:45:34;1.40;;;0.80;;
36817;SDS011;22761;51.542;16.450;2023-06-04T10:48:03;1.90;;;0.80;;
36817;SDS011;22761;51.542;16.450;2023-06-04T10:50:33;1.50;;;0.70;;
36817;SDS011;22761;51.542;16.450;2023-06-04T10:53:02;2.90;;;0.80;;
36817;SDS011;22761;51.542;16.450;2023-06-04T10:55:31;3.70;;;0.70;;
36817;SDS011;22761;51.542;16.450;2023-06-04T10:58:00;2.60;;;0.80;;
36817;SDS011;22761;51.542;16.450;2023-06-04T11:00:42;2.60;;;0.70;;
36817;SDS011;22761;51.542;16.450;2023-06-04T11:03:14;2.30;;;0.90;;
36817;SDS011;22761;51.542;16.450;2023-06-04T11:05:44;1.50;;;1.00;;
36817;SDS011;22761;51.542;16.450;2023-06-04T11:08:14;2.90;;;0.80;;
36817;SDS011;22761;51.542;16.450;2023-06-04T11:10:43;2.70;;;1.00;;
36817;SDS011;22761;51.542;16.450;2023-06-04T11:13:12;1.40;;;0.70;;
36817;SDS011;22761;51.542;16.450;2023-06-04T11:15:42;2.20;;;0.80;;
36817;SDS011;22761;51.542;16.450;2023-06-04T11:18:18;1.80;;;0.80;;
36817;SDS011;22761;51.542;16.450;2023-06-04T11:20:48;1.80;;;0.80;;
36817;SDS011;22761;51.542;16.450;2023-06-04T11:23:18;1.30;;;0.50;;
36817;SDS011;22761;51.542;16.450;2023-06-04T11:25:46;2.60;;;0.90;;
36817;SDS011;22761;51.542;16.450;2023-06-04T11:28:20;4.40;;;0.70;;
36817;SDS011;22761;51.542;16.450;2023-06-04T11:30:58;2.40;;;0.80;;
36817;SDS011;22761;51.542;16.450;2023-06-04T11:33:27;4.60;;;1.40;;
36817;SDS011;22761;51.542;16.450;2023-06-04T11:38:25;4.40;;;1.80;;
36817;SDS011;22761;51.542;16.450;2023-06-04T11:40:59;4.50;;;1.20;;
36817;SDS011;22761;51.542;16.450;2023-06-04T11:43:30;5.70;;;3.50;;
36817;SDS011;22761;51.542;16.450;2023-06-04T11:46:04;2.10;;;1.30;;
36817;SDS011;22761;51.542;16.450;2023-06-04T11:48:37;3.80;;;2.30;;
36817;SDS011;22761;51.542;16.450;2023-06-04T11:51:08;7.20;;;4.80;;
36817;SDS011;22761;51.542;16.450;2023-06-04T11:53:39;1.90;;;1.30;;
36817;SDS011;22761;51.542;16.450;2023-06-04T11:56:08;6.30;;;3.40;;
36817;SDS011;22761;51.542;16.450;2023-06-04T11:58:36;4.80;;;1.00;;
36817;SDS011;22761;51.542;16.450;2023-06-04T12:01:06;4.00;;;1.00;;
36817;SDS011;22761;51.542;16.450;2023-06-04T12:03:37;1.80;;;0.90;;
36817;SDS011;22761;51.542;16.450;2023-06-04T12:06:13;1.80;;;0.70;;
36817;SDS011;22761;51.542;16.450;2023-06-04T12:08:51;1.60;;;0.80;;
36817;SDS011;22761;51.542;16.450;2023-06-04T12:13:52;2.80;;;0.90;;
36817;SDS011;22761;51.542;16.450;2023-06-04T12:16:24;1.40;;;0.60;;
36817;SDS011;22761;51.542;16.450;2023-06-04T12:19:03;4.00;;;0.80;;
36817;SDS011;22761;51.542;16.450;2023-06-04T12:21:35;2.90;;;0.90;;
36817;SDS011;22761;51.542;16.450;2023-06-04T12:24:10;2.00;;;0.90;;
36817;SDS011;22761;51.542;16.450;2023-06-04T12:26:41;2.30;;;0.70;;
36817;SDS011;22761;51.542;16.450;2023-06-04T12:29:17;0.60;;;0.50;;
36817;SDS011;22761;51.542;16.450;2023-06-04T12:31:47;1.80;;;0.60;;
36817;SDS011;22761;51.542;16.450;2023-06-04T12:34:16;2.30;;;0.80;;
36817;SDS011;22761;51.542;16.450;2023-06-04T12:36:45;0.90;;;0.70;;
36817;SDS011;22761;51.542;16.450;2023-06-04T12:39:14;1.30;;;0.70;;
36817;SDS011;22761;51.542;16.450;2023-06-04T12:41:44;1.10;;;0.60;;
36817;SDS011;22761;51.542;16.450;2023-06-04T12:44:13;2.40;;;0.80;;
36817;SDS011;22761;51.542;16.450;2023-06-04T12:46:42;0.80;;;0.60;;
36817;SDS011;22761;51.542;16.450;2023-06-04T12:49:10;1.30;;;0.80;;
36817;SDS011;22761;51.542;16.450;2023-06-04T12:51:39;3.20;;;0.80;;
36817;SDS011;22761;51.542;16.450;2023-06-04T12:54:08;2.70;;;0.70;;
36817;SDS011;22761;51.542;16.450;2023-06-04T12:56:38;1.40;;;0.70;;
36817;SDS011;22761;51.542;16.450;2023-06-04T12:59:08;2.10;;;0.80;;
36817;SDS011;22761;51.542;16.450;2023-06-04T13:01:36;2.10;;;0.80;;
36817;SDS011;22761;51.542;16.450;2023-06-04T13:04:07;1.50;;;0.90;;
36817;SDS011;22761;51.542;16.450;2023-06-04T13:06:36;1.10;;;0.90;;
36817;SDS011;22761;51.542;16.450;2023-06-04T13:09:06;2.10;;;0.80;;
36817;SDS011;22761;51.542;16.450;2023-06-04T13:11:40;4.00;;;0.90;;
36817;SDS011;22761;51.542;16.450;2023-06-04T13:14:09;1.20;;;0.80;;
36817;SDS011;22761;51.542;16.450;2023-06-04T13:16:38;2.20;;;0.80;;
36817;SDS011;22761;51.542;16.450;2023-06-04T13:21:36;1.80;;;1.00;;
36817;SDS011;22761;51.542;16.450;2023-06-04T13:24:04;1.20;;;0.80;;
36817;SDS011;22761;51.542;16.450;2023-06-04T13:26:33;1.00;;;0.60;;
36817;SDS011;22761;51.542;16.450;2023-06-04T13:29:02;1.40;;;0.70;;
36817;SDS011;22761;51.542;16.450;2023-06-04T13:31:30;1.40;;;0.90;;
36817;SDS011;22761;51.542;16.450;2023-06-04T13:33:58;1.20;;;0.80;;
36817;SDS011;22761;51.542;16.450;2023-06-04T13:36:33;4.50;;;0.80;;
36817;SDS011;22761;51.542;16.450;2023-06-04T13:39:01;1.10;;;0.70;;
36817;SDS011;22761;51.542;16.450;2023-06-04T13:41:32;1.10;;;0.70;;
36817;SDS011;22761;51.542;16.450;2023-06-04T13:44:00;3.60;;;0.70;;
36817;SDS011;22761;51.542;16.450;2023-06-04T13:46:28;0.70;;;0.70;;
36817;SDS011;22761;51.542;16.450;2023-06-04T13:51:25;4.00;;;0.90;;
36817;SDS011;22761;51.542;16.450;2023-06-04T13:53:53;2.10;;;0.70;;
36817;SDS011;22761;51.542;16.450;2023-06-04T13:56:22;2.10;;;0.80;;
36817;SDS011;22761;51.542;16.450;2023-06-04T13:58:51;1.90;;;0.60;;
36817;SDS011;22761;51.542;16.450;2023-06-04T14:01:19;3.00;;;0.70;;
36817;SDS011;22761;51.542;16.450;2023-06-04T14:03:48;0.80;;;0.70;;
36817;SDS011;22761;51.542;16.450;2023-06-04T14:06:16;2.20;;;0.70;;
36817;SDS011;22761;51.542;16.450;2023-06-04T14:08:45;2.90;;;0.70;;
36817;SDS011;22761;51.542;16.450;2023-06-04T14:11:13;1.30;;;0.70;;
36817;SDS011;22761;51.542;16.450;2023-06-04T14:13:41;1.90;;;0.70;;
36817;SDS011;22761;51.542;16.450;2023-06-04T14:16:13;0.90;;;0.70;;
36817;SDS011;22761;51.542;16.450;2023-06-04T14:18:41;2.00;;;0.90;;
36817;SDS011;22761;51.542;16.450;2023-06-04T14:21:11;1.40;;;0.60;;
36817;SDS011;22761;51.542;16.450;2023-06-04T14:23:39;4.60;;;0.80;;
36817;SDS011;22761;51.542;16.450;2023-06-04T14:28:36;2.30;;;0.80;;
36817;SDS011;22761;51.542;16.450;2023-06-04T14:31:04;1.00;;;0.70;;
36817;SDS011;22761;51.542;16.450;2023-06-04T14:33:33;2.60;;;0.90;;
36817;SDS011;22761;51.542;16.450;2023-06-04T14:36:03;2.20;;;0.80;;
36817;SDS011;22761;51.542;16.450;2023-06-04T14:38:32;2.80;;;0.80;;
36817;SDS011;22761;51.542;16.450;2023-06-04T14:41:00;4.80;;;0.70;;
36817;SDS011;22761;51.542;16.450;2023-06-04T14:43:29;1.10;;;0.60;;
36817;SDS011;22761;51.542;16.450;2023-06-04T14:45:57;0.90;;;0.70;;
36817;SDS011;22761;51.542;16.450;2023-06-04T14:53:23;1.00;;;0.50;;
36817;SDS011;22761;51.542;16.450;2023-06-04T14:58:20;0.80;;;0.60;;
36817;SDS011;22761;51.542;16.450;2023-06-04T15:00:49;0.90;;;0.60;;
36817;SDS011;22761;51.542;16.450;2023-06-04T15:03:17;1.00;;;0.70;;
36817;SDS011;22761;51.542;16.450;2023-06-04T15:05:45;1.20;;;0.60;;
36817;SDS011;22761;51.542;16.450;2023-06-04T15:08:14;2.20;;;0.50;;
36817;SDS011;22761;51.542;16.450;2023-06-04T15:10:42;3.20;;;0.90;;
36817;SDS011;22761;51.542;16.450;2023-06-04T15:13:11;1.30;;;0.70;;
36817;SDS011;22761;51.542;16.450;2023-06-04T15:18:07;2.20;;;0.80;;